sensor_id;sensor_type;location;lat;lon;timestamp;pressure;altitude;pressure_sealevel;temperature;humidity
26978;BME280;56314;48.088;11.642;2023-02-12T00:00:29;97258.28;;;3.45;66.15
26978;BME280;56314;48.088;11.642;2023-02-12T00:02:55;97262.63;;;3.44;65.86
26978;BME280;56314;48.088;11.642;2023-02-12T00:05:20;97259.19;;;3.42;66.29
26978;BME280;56314;48.088;11.642;2023-02-12T00:07:46;97250.41;;;3.49;65.81
26978;BME280;56314;48.088;11.642;2023-02-12T00:10:11;97253.13;;;3.43;67.05
26978;BME280;56314;48.088;11.642;2023-02-12T00:12:37;97252.19;;;3.47;67.26
26978;BME280;56314;48.088;11.642;2023-02-12T00:15:03;97253.13;;;3.43;66.33
26978;BME280;56314;48.088;11.642;2023-02-12T00:17:28;97247.19;;;3.36;65.92
26978;BME280;56314;48.088;11.642;2023-02-12T00:19:54;97236.94;;;3.30;67.83
26978;BME280;56314;48.088;11.642;2023-02-12T00:22:19;97229.09;;;3.32;68.36
26978;BME280;56314;48.088;11.642;2023-02-12T00:24:44;97226.38;;;3.38;68.00
26978;BME280;56314;48.088;11.642;2023-02-12T00:27:10;97246.41;;;3.33;66.77
26978;BME280;56314;48.088;11.642;2023-02-12T00:29:36;97232.44;;;3.37;66.39
26978;BME280;56314;48.088;11.642;2023-02-12T00:32:02;97239.41;;;3.36;66.68
26978;BME280;56314;48.088;11.642;2023-02-12T00:34:27;97241.25;;;3.30;66.47
26978;BME280;56314;48.088;11.642;2023-02-12T00:36:52;97253.34;;;3.31;67.17
26978;BME280;56314;48.088;11.642;2023-02-12T00:39:18;97251.41;;;3.42;67.04
26978;BME280;56314;48.088;11.642;2023-02-12T00:41:43;97237.59;;;3.42;67.24
26978;BME280;56314;48.088;11.642;2023-02-12T00:44:08;97240.25;;;3.37;66.72
26978;BME280;56314;48.088;11.642;2023-02-12T00:46:34;97236.00;;;3.33;67.71
26978;BME280;56314;48.088;11.642;2023-02-12T00:48:59;97230.94;;;3.25;66.86
26978;BME280;56314;48.088;11.642;2023-02-12T00:51:24;97236.06;;;3.30;67.42
26978;BME280;56314;48.088;11.642;2023-02-12T00:53:50;97226.41;;;3.36;67.62
26978;BME280;56314;48.088;11.642;2023-02-12T00:56:15;97230.66;;;3.41;67.21
26978;BME280;56314;48.088;11.642;2023-02-12T00:58:41;97239.47;;;3.32;68.65
26978;BME280;56314;48.088;11.642;2023-02-12T01:01:06;97245.47;;;3.35;68.40
26978;BME280;56314;48.088;11.642;2023-02-12T01:03:31;97248.94;;;3.34;67.80
26978;BME280;56314;48.088;11.642;2023-02-12T01:05:57;97250.66;;;3.35;67.53
26978;BME280;56314;48.088;11.642;2023-02-12T01:08:22;97259.47;;;3.28;67.57
26978;BME280;56314;48.088;11.642;2023-02-12T01:10:56;97251.59;;;3.33;67.92
26978;BME280;56314;48.088;11.642;2023-02-12T01:13:22;97245.59;;;3.28;67.22
26978;BME280;56314;48.088;11.642;2023-02-12T01:16:00;97248.28;;;3.25;67.26
26978;BME280;56314;48.088;11.642;2023-02-12T01:18:25;97242.09;;;3.32;68.48
26978;BME280;56314;48.088;11.642;2023-02-12T01:20:50;97238.75;;;3.25;67.51
26978;BME280;56314;48.088;11.642;2023-02-12T01:23:16;97230.94;;;3.25;68.25
26978;BME280;56314;48.088;11.642;2023-02-12T01:25:41;97235.34;;;3.21;67.58
26978;BME280;56314;48.088;11.642;2023-02-12T01:28:09;97239.56;;;3.27;67.61
26978;BME280;56314;48.088;11.642;2023-02-12T01:30:34;97253.22;;;3.37;67.18
26978;BME280;56314;48.088;11.642;2023-02-12T01:32:59;97250.81;;;3.28;67.49
26978;BME280;56314;48.088;11.642;2023-02-12T01:35:25;97250.06;;;3.21;67.61
26978;BME280;56314;48.088;11.642;2023-02-12T01:37:50;97255.38;;;3.15;68.46
26978;BME280;56314;48.088;11.642;2023-02-12T01:40:16;97257.09;;;3.16;68.37
26978;BME280;56314;48.088;11.642;2023-02-12T01:42:42;97259.59;;;3.19;67.36
26978;BME280;56314;48.088;11.642;2023-02-12T01:47:43;97257.06;;;3.17;66.76
26978;BME280;56314;48.088;11.642;2023-02-12T01:50:12;97259.69;;;3.16;66.89
26978;BME280;56314;48.088;11.642;2023-02-12T01:52:41;97260.44;;;3.22;66.85
26978;BME280;56314;48.088;11.642;2023-02-12T01:55:08;97261.44;;;3.14;66.28
26978;BME280;56314;48.088;11.642;2023-02-12T01:57:37;97259.72;;;3.13;66.69
26978;BME280;56314;48.088;11.642;2023-02-12T02:00:08;97262.41;;;3.08;66.81
26978;BME280;56314;48.088;11.642;2023-02-12T02:02:36;97255.47;;;3.10;66.75
26978;BME280;56314;48.088;11.642;2023-02-12T02:05:02;97254.59;;;3.10;67.01
26978;BME280;56314;48.088;11.642;2023-02-12T02:07:28;97246.00;;;3.06;67.05
26978;BME280;56314;48.088;11.642;2023-02-12T02:09:55;97247.75;;;3.04;66.79
26978;BME280;56314;48.088;11.642;2023-02-12T02:12:21;97243.34;;;3.09;67.08
26978;BME280;56314;48.088;11.642;2023-02-12T02:15:05;97244.28;;;3.05;66.68
26978;BME280;56314;48.088;11.642;2023-02-12T02:31:20;97241.78;;;3.00;66.71
26978;BME280;56314;48.088;11.642;2023-02-12T02:36:46;97240.94;;;2.98;66.41
26978;BME280;56314;48.088;11.642;2023-02-12T02:39:36;97242.47;;;3.08;67.51
26978;BME280;56314;48.088;11.642;2023-02-12T02:45:07;97245.19;;;3.02;67.32
26978;BME280;56314;48.088;11.642;2023-02-12T02:47:52;97236.44;;;3.08;68.05
26978;BME280;56314;48.088;11.642;2023-02-12T02:50:22;97236.41;;;3.11;67.74
26978;BME280;56314;48.088;11.642;2023-02-12T02:52:55;97222.75;;;3.00;67.32
26978;BME280;56314;48.088;11.642;2023-02-12T02:55:24;97220.97;;;3.03;67.05
26978;BME280;56314;48.088;11.642;2023-02-12T02:58:00;97236.59;;;3.00;67.22
26978;BME280;56314;48.088;11.642;2023-02-12T03:02:55;97223.56;;;3.02;66.91
26978;BME280;56314;48.088;11.642;2023-02-12T03:05:31;97217.44;;;3.06;67.00
26978;BME280;56314;48.088;11.642;2023-02-12T03:08:06;97222.69;;;3.04;66.85
26978;BME280;56314;48.088;11.642;2023-02-12T03:10:41;97230.50;;;3.01;66.82
26978;BME280;56314;48.088;11.642;2023-02-12T03:13:14;97232.00;;;3.13;67.89
26978;BME280;56314;48.088;11.642;2023-02-12T03:15:50;97239.00;;;3.11;67.81
26978;BME280;56314;48.088;11.642;2023-02-12T03:18:25;97235.75;;;3.00;68.09
26978;BME280;56314;48.088;11.642;2023-02-12T03:21:00;97239.25;;;2.96;68.26
26978;BME280;56314;48.088;11.642;2023-02-12T03:23:36;97249.72;;;2.91;68.29
26978;BME280;56314;48.088;11.642;2023-02-12T03:26:13;97251.44;;;2.92;68.52
26978;BME280;56314;48.088;11.642;2023-02-12T03:28:42;97255.78;;;2.90;68.73
26978;BME280;56314;48.088;11.642;2023-02-12T03:33:59;97255.59;;;3.01;69.44
26978;BME280;56314;48.088;11.642;2023-02-12T03:37:18;97254.88;;;2.94;69.97
26978;BME280;56314;48.088;11.642;2023-02-12T03:39:29;97254.91;;;2.91;69.95
26978;BME280;56314;48.088;11.642;2023-02-12T03:42:05;97252.19;;;2.97;68.82
26978;BME280;56314;48.088;11.642;2023-02-12T03:44:49;97250.56;;;2.93;68.92
26978;BME280;56314;48.088;11.642;2023-02-12T03:47:21;97254.78;;;2.99;69.13
26978;BME280;56314;48.088;11.642;2023-02-12T03:50:00;97246.16;;;2.97;68.15
26978;BME280;56314;48.088;11.642;2023-02-12T03:52:28;97249.63;;;2.96;68.72
26978;BME280;56314;48.088;11.642;2023-02-12T03:54:53;97247.88;;;2.98;69.34
26978;BME280;56314;48.088;11.642;2023-02-12T03:57:21;97258.22;;;2.99;68.19
26978;BME280;56314;48.088;11.642;2023-02-12T03:59:48;97256.53;;;2.97;67.92
26978;BME280;56314;48.088;11.642;2023-02-12T04:02:17;97260.06;;;2.92;67.85
26978;BME280;56314;48.088;11.642;2023-02-12T04:04:44;97257.44;;;2.96;68.91
26978;BME280;56314;48.088;11.642;2023-02-12T04:07:11;97260.88;;;2.96;68.58
26978;BME280;56314;48.088;11.642;2023-02-12T04:09:37;97273.97;;;2.90;68.54
26978;BME280;56314;48.088;11.642;2023-02-12T04:14:54;97278.16;;;2.99;68.78
26978;BME280;56314;48.088;11.642;2023-02-12T04:20:26;97275.63;;;2.92;68.93
26978;BME280;56314;48.088;11.642;2023-02-12T04:25:59;97279.91;;;2.97;68.67
26978;BME280;56314;48.088;11.642;2023-02-12T04:31:22;97284.22;;;2.98;69.28
26978;BME280;56314;48.088;11.642;2023-02-12T04:36:36;97281.69;;;2.93;69.40
26978;BME280;56314;48.088;11.642;2023-02-12T04:39:09;97284.34;;;2.90;69.99
26978;BME280;56314;48.088;11.642;2023-02-12T04:41:37;97291.22;;;2.92;69.63
26978;BME280;56314;48.088;11.642;2023-02-12T04:44:18;97287.00;;;2.85;70.17
26978;BME280;56314;48.088;11.642;2023-02-12T04:46:44;97292.84;;;3.00;70.10
26978;BME280;56314;48.088;11.642;2023-02-12T04:49:14;97287.78;;;2.92;69.76
26978;BME280;56314;48.088;11.642;2023-02-12T04:51:40;97286.97;;;2.88;69.35
26978;BME280;56314;48.088;11.642;2023-02-12T04:54:05;97296.44;;;2.91;70.24
26978;BME280;56314;48.088;11.642;2023-02-12T04:56:30;97292.13;;;2.90;70.29
26978;BME280;56314;48.088;11.642;2023-02-12T04:58:56;97293.88;;;2.88;69.35
26978;BME280;56314;48.088;11.642;2023-02-12T05:01:22;97297.28;;;2.91;69.65
26978;BME280;56314;48.088;11.642;2023-02-12T05:03:47;97297.28;;;2.91;69.87
26978;BME280;56314;48.088;11.642;2023-02-12T05:06:13;97296.50;;;2.86;69.37
26978;BME280;56314;48.088;11.642;2023-02-12T05:08:38;97300.78;;;2.89;69.96
26978;BME280;56314;48.088;11.642;2023-02-12T05:11:05;97308.53;;;2.92;69.80
26978;BME280;56314;48.088;11.642;2023-02-12T05:13:31;97304.97;;;2.98;69.35
26978;BME280;56314;48.088;11.642;2023-02-12T05:15:56;97299.94;;;2.88;69.80
26978;BME280;56314;48.088;11.642;2023-02-12T05:18:21;97299.00;;;2.92;69.16
26978;BME280;56314;48.088;11.642;2023-02-12T05:20:57;97301.59;;;2.94;69.76
26978;BME280;56314;48.088;11.642;2023-02-12T05:23:25;97304.19;;;2.94;70.74
26978;BME280;56314;48.088;11.642;2023-02-12T05:25:51;97309.28;;;2.99;70.02
26978;BME280;56314;48.088;11.642;2023-02-12T05:28:17;97308.56;;;2.89;70.48
26978;BME280;56314;48.088;11.642;2023-02-12T05:30:42;97309.09;;;3.10;70.57
26978;BME280;56314;48.088;11.642;2023-02-12T05:33:07;97311.81;;;3.02;70.65
26978;BME280;56314;48.088;11.642;2023-02-12T05:35:36;97304.09;;;2.99;71.64
26978;BME280;56314;48.088;11.642;2023-02-12T05:38:01;97311.00;;;3.00;71.92
26978;BME280;56314;48.088;11.642;2023-02-12T05:40:26;97312.75;;;2.98;71.14
26978;BME280;56314;48.088;11.642;2023-02-12T05:42:52;97312.66;;;3.04;70.66
26978;BME280;56314;48.088;11.642;2023-02-12T05:45:17;97317.19;;;2.91;70.75
26978;BME280;56314;48.088;11.642;2023-02-12T05:47:43;97321.59;;;2.87;71.22
26978;BME280;56314;48.088;11.642;2023-02-12T05:50:08;97322.38;;;2.89;71.39
26978;BME280;56314;48.088;11.642;2023-02-12T05:52:34;97323.25;;;2.90;71.73
26978;BME280;56314;48.088;11.642;2023-02-12T05:54:59;97324.88;;;2.97;71.97
26978;BME280;56314;48.088;11.642;2023-02-12T05:57:24;97318.06;;;2.90;71.44
26978;BME280;56314;48.088;11.642;2023-02-12T05:59:50;97314.56;;;2.94;71.50
26978;BME280;56314;48.088;11.642;2023-02-12T06:02:15;97310.16;;;2.98;70.70
26978;BME280;56314;48.088;11.642;2023-02-12T06:04:40;97313.72;;;2.92;70.71
26978;BME280;56314;48.088;11.642;2023-02-12T06:07:06;97315.50;;;2.87;71.19
26978;BME280;56314;48.088;11.642;2023-02-12T06:09:32;97320.66;;;2.90;71.47
26978;BME280;56314;48.088;11.642;2023-02-12T06:11:59;97325.81;;;2.93;70.95
26978;BME280;56314;48.088;11.642;2023-02-12T06:14:24;97319.84;;;2.88;71.34
26978;BME280;56314;48.088;11.642;2023-02-12T06:16:50;97328.56;;;2.82;70.11
26978;BME280;56314;48.088;11.642;2023-02-12T06:19:16;97337.16;;;2.86;70.59
26978;BME280;56314;48.088;11.642;2023-02-12T06:21:42;97337.91;;;2.94;71.71
26978;BME280;56314;48.088;11.642;2023-02-12T06:24:12;97337.97;;;2.89;70.82
26978;BME280;56314;48.088;11.642;2023-02-12T06:26:38;97335.47;;;2.83;71.22
26978;BME280;56314;48.088;11.642;2023-02-12T06:29:03;97339.84;;;2.80;70.91
26978;BME280;56314;48.088;11.642;2023-02-12T06:31:31;97338.72;;;2.98;71.13
26978;BME280;56314;48.088;11.642;2023-02-12T06:33:59;97342.91;;;3.05;70.92
26978;BME280;56314;48.088;11.642;2023-02-12T06:36:25;97347.34;;;3.00;71.07
26978;BME280;56314;48.088;11.642;2023-02-12T06:38:51;97351.78;;;2.91;71.34
26978;BME280;56314;48.088;11.642;2023-02-12T06:41:16;97348.44;;;2.83;71.26
26978;BME280;56314;48.088;11.642;2023-02-12T06:43:41;97345.81;;;2.86;70.82
26978;BME280;56314;48.088;11.642;2023-02-12T06:46:07;97350.88;;;2.94;70.49
26978;BME280;56314;48.088;11.642;2023-02-12T06:48:33;97351.78;;;2.93;71.35
26978;BME280;56314;48.088;11.642;2023-02-12T06:51:08;97353.50;;;2.92;70.46
26978;BME280;56314;48.088;11.642;2023-02-12T06:53:34;97353.34;;;3.02;69.72
26978;BME280;56314;48.088;11.642;2023-02-12T06:56:01;97345.41;;;3.13;69.59
26978;BME280;56314;48.088;11.642;2023-02-12T06:58:27;97353.22;;;3.10;70.44
26978;BME280;56314;48.088;11.642;2023-02-12T07:00:52;97354.13;;;3.07;70.23
26978;BME280;56314;48.088;11.642;2023-02-12T07:03:18;97359.47;;;2.98;69.50
26978;BME280;56314;48.088;11.642;2023-02-12T07:05:43;97353.19;;;3.13;69.02
26978;BME280;56314;48.088;11.642;2023-02-12T07:08:08;97356.69;;;3.10;68.79
26978;BME280;56314;48.088;11.642;2023-02-12T07:10:34;97360.84;;;3.19;68.48
26978;BME280;56314;48.088;11.642;2023-02-12T07:12:59;97361.06;;;3.08;68.35
26978;BME280;56314;48.088;11.642;2023-02-12T07:15:24;97364.56;;;3.05;67.98
26978;BME280;56314;48.088;11.642;2023-02-12T07:17:50;97361.50;;;3.33;68.63
26978;BME280;56314;48.088;11.642;2023-02-12T07:20:15;97360.84;;;3.20;68.29
26978;BME280;56314;48.088;11.642;2023-02-12T07:22:41;97354.78;;;3.21;68.43
26978;BME280;56314;48.088;11.642;2023-02-12T07:25:06;97363.22;;;3.36;68.95
26978;BME280;56314;48.088;11.642;2023-02-12T07:27:35;97359.78;;;3.34;68.37
26978;BME280;56314;48.088;11.642;2023-02-12T07:30:00;97352.88;;;3.33;68.28
26978;BME280;56314;48.088;11.642;2023-02-12T07:32:26;97350.28;;;3.31;68.22
26978;BME280;56314;48.088;11.642;2023-02-12T07:34:51;97357.19;;;3.34;68.49
26978;BME280;56314;48.088;11.642;2023-02-12T07:37:16;97353.63;;;3.38;68.45
26978;BME280;56314;48.088;11.642;2023-02-12T07:39:46;97344.00;;;3.45;68.41
26978;BME280;56314;48.088;11.642;2023-02-12T07:42:12;97352.53;;;3.53;68.54
26978;BME280;56314;48.088;11.642;2023-02-12T07:44:39;97349.06;;;3.52;69.11
26978;BME280;56314;48.088;11.642;2023-02-12T07:47:04;97346.41;;;3.56;68.97
26978;BME280;56314;48.088;11.642;2023-02-12T07:49:30;97346.22;;;3.66;69.61
26978;BME280;56314;48.088;11.642;2023-02-12T07:51:55;97341.50;;;3.87;69.64
26978;BME280;56314;48.088;11.642;2023-02-12T07:54:21;97339.66;;;3.94;69.56
26978;BME280;56314;48.088;11.642;2023-02-12T07:56:46;97333.66;;;3.89;69.92
26978;BME280;56314;48.088;11.642;2023-02-12T07:59:14;97329.19;;;3.97;69.03
26978;BME280;56314;48.088;11.642;2023-02-12T08:01:46;97333.31;;;4.07;68.48
26978;BME280;56314;48.088;11.642;2023-02-12T08:04:14;97339.31;;;4.09;68.71
26978;BME280;56314;48.088;11.642;2023-02-12T08:06:42;97332.94;;;4.26;68.47
26978;BME280;56314;48.088;11.642;2023-02-12T08:09:09;97338.81;;;4.34;68.77
26978;BME280;56314;48.088;11.642;2023-02-12T08:11:36;97332.66;;;4.38;68.32
26978;BME280;56314;48.088;11.642;2023-02-12T08:14:02;97332.50;;;4.46;68.63
26978;BME280;56314;48.088;11.642;2023-02-12T08:16:29;97328.09;;;4.50;68.90
26978;BME280;56314;48.088;11.642;2023-02-12T08:18:56;97336.28;;;4.72;68.29
26978;BME280;56314;48.088;11.642;2023-02-12T08:21:23;97336.34;;;4.69;69.14
26978;BME280;56314;48.088;11.642;2023-02-12T08:23:49;97331.19;;;4.66;69.14
26978;BME280;56314;48.088;11.642;2023-02-12T08:26:39;97328.59;;;4.67;68.79
26978;BME280;56314;48.088;11.642;2023-02-12T08:29:09;97336.13;;;4.78;68.89
26978;BME280;56314;48.088;11.642;2023-02-12T08:31:40;97330.19;;;4.73;68.90
26978;BME280;56314;48.088;11.642;2023-02-12T08:34:06;97338.72;;;4.78;70.37
26978;BME280;56314;48.088;11.642;2023-02-12T08:36:36;97340.38;;;4.82;70.18
26978;BME280;56314;48.088;11.642;2023-02-12T08:39:03;97324.53;;;4.91;70.52
26978;BME280;56314;48.088;11.642;2023-02-12T08:41:29;97326.81;;;5.05;70.71
26978;BME280;56314;48.088;11.642;2023-02-12T08:43:57;97315.41;;;5.11;71.43
26978;BME280;56314;48.088;11.642;2023-02-12T08:46:25;97322.75;;;5.30;70.82
26978;BME280;56314;48.088;11.642;2023-02-12T08:48:56;97316.97;;;5.53;69.96
26978;BME280;56314;48.088;11.642;2023-02-12T08:51:24;97318.00;;;5.79;68.93
26978;BME280;56314;48.088;11.642;2023-02-12T08:53:53;97315.50;;;6.09;67.65
26978;BME280;56314;48.088;11.642;2023-02-12T08:56:19;97314.66;;;6.38;66.79
26978;BME280;56314;48.088;11.642;2023-02-12T08:58:45;97313.00;;;6.64;66.97
26978;BME280;56314;48.088;11.642;2023-02-12T09:01:13;97302.91;;;7.08;65.79
26978;BME280;56314;48.088;11.642;2023-02-12T09:03:40;97310.97;;;7.54;65.19
26978;BME280;56314;48.088;11.642;2023-02-12T09:06:06;97305.38;;;8.14;62.29
26978;BME280;56314;48.088;11.642;2023-02-12T09:08:35;97304.94;;;8.27;61.88
26978;BME280;56314;48.088;11.642;2023-02-12T09:11:09;97300.75;;;8.45;61.13
26978;BME280;56314;48.088;11.642;2023-02-12T09:13:35;97296.25;;;8.72;59.99
26978;BME280;56314;48.088;11.642;2023-02-12T09:16:02;97300.59;;;8.96;59.12
26978;BME280;56314;48.088;11.642;2023-02-12T09:18:30;97300.63;;;8.94;57.94
26978;BME280;56314;48.088;11.642;2023-02-12T09:21:07;97302.88;;;9.03;59.18
26978;BME280;56314;48.088;11.642;2023-02-12T09:23:33;97306.56;;;8.99;60.39
26978;BME280;56314;48.088;11.642;2023-02-12T09:25:58;97308.00;;;9.06;59.67
26978;BME280;56314;48.088;11.642;2023-02-12T09:28:24;97312.09;;;9.14;60.07
26978;BME280;56314;48.088;11.642;2023-02-12T09:30:49;97314.22;;;9.47;59.06
26978;BME280;56314;48.088;11.642;2023-02-12T09:33:15;97314.22;;;10.28;56.80
26978;BME280;56314;48.088;11.642;2023-02-12T09:35:41;97300.28;;;10.66;54.43
26978;BME280;56314;48.088;11.642;2023-02-12T09:38:09;97302.53;;;10.35;55.17
26978;BME280;56314;48.088;11.642;2023-02-12T09:43:16;97300.97;;;10.69;54.64
26978;BME280;56314;48.088;11.642;2023-02-12T09:51:20;97319.06;;;9.77;56.91
26978;BME280;56314;48.088;11.642;2023-02-12T09:53:47;97322.84;;;9.28;58.61
26978;BME280;56314;48.088;11.642;2023-02-12T09:56:16;97321.53;;;8.96;59.73
26978;BME280;56314;48.088;11.642;2023-02-12T09:58:48;97322.44;;;8.72;60.60
26978;BME280;56314;48.088;11.642;2023-02-12T10:01:20;97315.16;;;8.57;61.55
26978;BME280;56314;48.088;11.642;2023-02-12T10:03:48;97319.28;;;8.64;61.97
26978;BME280;56314;48.088;11.642;2023-02-12T10:06:40;97323.16;;;8.54;61.08
26978;BME280;56314;48.088;11.642;2023-02-12T10:12:16;97313.63;;;9.61;61.13
26978;BME280;56314;48.088;11.642;2023-02-12T10:27:42;97300.00;;;11.96;50.61
26978;BME280;56314;48.088;11.642;2023-02-12T10:30:44;97297.25;;;12.97;47.83
26978;BME280;56314;48.088;11.642;2023-02-12T10:33:19;97290.94;;;14.49;44.85
26978;BME280;56314;48.088;11.642;2023-02-12T10:35:54;97289.56;;;15.00;42.89
26978;BME280;56314;48.088;11.642;2023-02-12T10:38:31;97288.41;;;15.31;41.11
26978;BME280;56314;48.088;11.642;2023-02-12T10:40:59;97292.59;;;15.21;42.42
26978;BME280;56314;48.088;11.642;2023-02-12T10:43:26;97288.00;;;14.54;42.77
26978;BME280;56314;48.088;11.642;2023-02-12T10:45:54;97285.78;;;14.33;43.08
26978;BME280;56314;48.088;11.642;2023-02-12T10:48:22;97301.53;;;13.30;45.02
26978;BME280;56314;48.088;11.642;2023-02-12T10:51:10;97305.06;;;12.01;48.66
26978;BME280;56314;48.088;11.642;2023-02-12T10:53:43;97299.88;;;12.15;48.91
26978;BME280;56314;48.088;11.642;2023-02-12T10:56:18;97288.66;;;12.45;46.93
26978;BME280;56314;48.088;11.642;2023-02-12T10:58:53;97292.84;;;12.16;48.64
26978;BME280;56314;48.088;11.642;2023-02-12T11:01:23;97312.69;;;11.18;50.55
26978;BME280;56314;48.088;11.642;2023-02-12T11:03:50;97308.06;;;11.23;52.19
26978;BME280;56314;48.088;11.642;2023-02-12T11:06:22;97290.19;;;12.00;49.87
26978;BME280;56314;48.088;11.642;2023-02-12T11:08:48;97288.91;;;12.57;48.70
26978;BME280;56314;48.088;11.642;2023-02-12T11:11:27;97286.63;;;12.67;47.84
26978;BME280;56314;48.088;11.642;2023-02-12T11:14:18;97284.44;;;12.25;49.33
26978;BME280;56314;48.088;11.642;2023-02-12T11:16:51;97278.00;;;13.11;47.31
26978;BME280;56314;48.088;11.642;2023-02-12T11:19:21;97279.56;;;13.60;45.96
26978;BME280;56314;48.088;11.642;2023-02-12T11:21:46;97282.56;;;13.84;46.29
26978;BME280;56314;48.088;11.642;2023-02-12T11:24:30;97278.06;;;13.26;46.10
26978;BME280;56314;48.088;11.642;2023-02-12T11:29:40;97274.53;;;12.62;48.66
26978;BME280;56314;48.088;11.642;2023-02-12T11:32:07;97269.78;;;12.69;47.82
26978;BME280;56314;48.088;11.642;2023-02-12T11:34:33;97278.28;;;12.09;49.22
26978;BME280;56314;48.088;11.642;2023-02-12T11:36:59;97274.13;;;12.54;48.96
26978;BME280;56314;48.088;11.642;2023-02-12T11:39:27;97273.72;;;12.62;48.73
26978;BME280;56314;48.088;11.642;2023-02-12T11:44:32;97265.34;;;12.54;49.11
26978;BME280;56314;48.088;11.642;2023-02-12T11:47:04;97270.63;;;12.70;48.77
26978;BME280;56314;48.088;11.642;2023-02-12T11:49:37;97260.69;;;12.75;48.56
26978;BME280;56314;48.088;11.642;2023-02-12T11:52:03;97256.84;;;13.27;47.46
26978;BME280;56314;48.088;11.642;2023-02-12T11:54:40;97256.88;;;13.11;47.24
26978;BME280;56314;48.088;11.642;2023-02-12T11:57:33;97259.63;;;13.09;46.72
26978;BME280;56314;48.088;11.642;2023-02-12T11:59:56;97260.31;;;12.97;47.34
26978;BME280;56314;48.088;11.642;2023-02-12T12:02:28;97255.59;;;12.56;47.75
26978;BME280;56314;48.088;11.642;2023-02-12T12:05:08;97262.44;;;12.10;48.62
26978;BME280;56314;48.088;11.642;2023-02-12T12:07:38;97251.50;;;12.18;48.28
26978;BME280;56314;48.088;11.642;2023-02-12T12:10:12;97251.22;;;12.07;48.54
26978;BME280;56314;48.088;11.642;2023-02-12T12:12:50;97254.66;;;11.74;50.48
26978;BME280;56314;48.088;11.642;2023-02-12T12:15:26;97252.44;;;11.48;51.22
26978;BME280;56314;48.088;11.642;2023-02-12T12:18:24;97260.78;;;11.04;51.86
26978;BME280;56314;48.088;11.642;2023-02-12T12:24:23;97250.19;;;9.92;55.16
26978;BME280;56314;48.088;11.642;2023-02-12T12:26:58;97246.94;;;9.66;56.79
26978;BME280;56314;48.088;11.642;2023-02-12T12:29:43;97254.44;;;9.55;57.48
26978;BME280;56314;48.088;11.642;2023-02-12T12:32:14;97250.41;;;9.46;57.66
26978;BME280;56314;48.088;11.642;2023-02-12T12:34:40;97249.59;;;9.46;58.14
26978;BME280;56314;48.088;11.642;2023-02-12T12:37:14;97253.25;;;9.21;59.04
26978;BME280;56314;48.088;11.642;2023-02-12T12:42:32;97244.16;;;9.30;59.93
26978;BME280;56314;48.088;11.642;2023-02-12T13:08:07;97236.34;;;10.65;54.24
26978;BME280;56314;48.088;11.642;2023-02-12T13:13:14;97235.66;;;10.98;52.91
26978;BME280;56314;48.088;11.642;2023-02-12T13:16:22;97223.69;;;11.28;52.73
26978;BME280;56314;48.088;11.642;2023-02-12T13:21:45;97230.75;;;11.78;51.24
26978;BME280;56314;48.088;11.642;2023-02-12T13:26:57;97222.66;;;11.99;50.27
26978;BME280;56314;48.088;11.642;2023-02-12T13:29:31;97225.88;;;11.70;50.38
26978;BME280;56314;48.088;11.642;2023-02-12T13:32:03;97221.88;;;11.79;50.62
26978;BME280;56314;48.088;11.642;2023-02-12T13:34:31;97211.19;;;12.00;50.71
26978;BME280;56314;48.088;11.642;2023-02-12T13:37:02;97215.97;;;12.25;49.70
26978;BME280;56314;48.088;11.642;2023-02-12T13:39:37;97210.91;;;12.38;49.77
26978;BME280;56314;48.088;11.642;2023-02-12T13:44:45;97208.94;;;12.26;49.44
26978;BME280;56314;48.088;11.642;2023-02-12T13:47:32;97199.56;;;12.04;50.18
26978;BME280;56314;48.088;11.642;2023-02-12T13:50:15;97204.50;;;12.10;49.80
26978;BME280;56314;48.088;11.642;2023-02-12T13:55:32;97206.88;;;12.15;49.90
26978;BME280;56314;48.088;11.642;2023-02-12T14:01:39;97208.00;;;11.93;50.51
26978;BME280;56314;48.088;11.642;2023-02-12T14:06:58;97205.13;;;11.64;51.64
26978;BME280;56314;48.088;11.642;2023-02-12T14:09:42;97208.13;;;11.40;51.91
26978;BME280;56314;48.088;11.642;2023-02-12T14:12:14;97205.88;;;11.33;53.36
26978;BME280;56314;48.088;11.642;2023-02-12T14:14:46;97209.66;;;11.27;52.51
26978;BME280;56314;48.088;11.642;2023-02-12T14:20:07;97206.69;;;11.17;53.40
26978;BME280;56314;48.088;11.642;2023-02-12T14:27:54;97213.38;;;10.88;55.77
26978;BME280;56314;48.088;11.642;2023-02-12T14:30:36;97213.25;;;10.72;55.89
26978;BME280;56314;48.088;11.642;2023-02-12T14:33:17;97213.72;;;10.62;56.79
26978;BME280;56314;48.088;11.642;2023-02-12T14:35:45;97221.47;;;10.66;56.26
26978;BME280;56314;48.088;11.642;2023-02-12T14:40:42;97222.88;;;10.35;57.05
26978;BME280;56314;48.088;11.642;2023-02-12T14:45:57;97209.31;;;9.86;58.31
26978;BME280;56314;48.088;11.642;2023-02-12T14:54:29;97212.06;;;9.02;61.93
26978;BME280;56314;48.088;11.642;2023-02-12T14:56:58;97219.25;;;8.76;62.87
26978;BME280;56314;48.088;11.642;2023-02-12T14:59:26;97217.56;;;8.75;63.34
26978;BME280;56314;48.088;11.642;2023-02-12T15:01:52;97220.63;;;8.85;62.81
26978;BME280;56314;48.088;11.642;2023-02-12T15:04:35;97224.44;;;8.78;62.93
26978;BME280;56314;48.088;11.642;2023-02-12T15:07:08;97222.34;;;8.86;62.59
26978;BME280;56314;48.088;11.642;2023-02-12T15:09:41;97222.91;;;8.72;62.83
26978;BME280;56314;48.088;11.642;2023-02-12T15:12:19;97221.50;;;8.41;63.88
26978;BME280;56314;48.088;11.642;2023-02-12T15:14:49;97220.13;;;8.31;63.97
26978;BME280;56314;48.088;11.642;2023-02-12T15:17:23;97222.59;;;8.12;64.80
26978;BME280;56314;48.088;11.642;2023-02-12T15:19:57;97219.59;;;7.99;65.60
26978;BME280;56314;48.088;11.642;2023-02-12T15:27:46;97213.91;;;7.64;66.73
26978;BME280;56314;48.088;11.642;2023-02-12T15:30:18;97209.94;;;7.53;66.71
26978;BME280;56314;48.088;11.642;2023-02-12T15:32:45;97207.34;;;7.52;66.72
26978;BME280;56314;48.088;11.642;2023-02-12T15:35:29;97213.25;;;7.33;66.36